sensor_id;sensor_type;location;lat;lon;timestamp;P1;durP1;ratioP1;P2;durP2;ratioP2
56399;SDS011;42298;53.638;9.876;2024-01-30T00:02:16;17.43;;;9.70;;
56399;SDS011;42298;53.638;9.876;2024-01-30T00:04:42;15.73;;;10.43;;
56399;SDS011;42298;53.638;9.876;2024-01-30T00:07:07;15.53;;;9.43;;
56399;SDS011;42298;53.638;9.876;2024-01-30T00:09:33;15.50;;;9.60;;
56399;SDS011;42298;53.638;9.876;2024-01-30T00:11:58;15.90;;;9.60;;
56399;SDS011;42298;53.638;9.876;2024-01-30T00:14:23;16.00;;;9.97;;
56399;SDS011;42298;53.638;9.876;2024-01-30T00:16:48;14.13;;;8.93;;
56399;SDS011;42298;53.638;9.876;2024-01-30T00:19:15;15.83;;;10.17;;
56399;SDS011;42298;53.638;9.876;2024-01-30T00:21:40;15.97;;;10.43;;
56399;SDS011;42298;53.638;9.876;2024-01-30T00:24:06;14.23;;;8.97;;
56399;SDS011;42298;53.638;9.876;2024-01-30T00:26:31;15.27;;;9.30;;
56399;SDS011;42298;53.638;9.876;2024-01-30T00:28:56;14.30;;;9.33;;
56399;SDS011;42298;53.638;9.876;2024-01-30T00:31:22;16.00;;;9.57;;
56399;SDS011;42298;53.638;9.876;2024-01-30T00:33:47;14.73;;;8.87;;
56399;SDS011;42298;53.638;9.876;2024-01-30T00:36:12;14.37;;;9.17;;
56399;SDS011;42298;53.638;9.876;2024-01-30T00:38:38;16.60;;;9.50;;
56399;SDS011;42298;53.638;9.876;2024-01-30T00:41:03;15.70;;;10.10;;
56399;SDS011;42298;53.638;9.876;2024-01-30T00:43:29;15.80;;;9.30;;
56399;SDS011;42298;53.638;9.876;2024-01-30T00:45:54;16.57;;;9.93;;
56399;SDS011;42298;53.638;9.876;2024-01-30T00:48:20;13.33;;;8.53;;
56399;SDS011;42298;53.638;9.876;2024-01-30T00:50:45;16.47;;;9.50;;
56399;SDS011;42298;53.638;9.876;2024-01-30T00:53:11;14.40;;;9.80;;
56399;SDS011;42298;53.638;9.876;2024-01-30T00:55:36;16.67;;;10.00;;
56399;SDS011;42298;53.638;9.876;2024-01-30T00:58:01;16.93;;;9.27;;
56399;SDS011;42298;53.638;9.876;2024-01-30T01:00:27;20.53;;;9.80;;
56399;SDS011;42298;53.638;9.876;2024-01-30T01:02:54;16.40;;;10.03;;
56399;SDS011;42298;53.638;9.876;2024-01-30T01:05:20;15.57;;;10.43;;
56399;SDS011;42298;53.638;9.876;2024-01-30T01:07:45;15.23;;;9.70;;
56399;SDS011;42298;53.638;9.876;2024-01-30T01:10:12;14.97;;;9.73;;
56399;SDS011;42298;53.638;9.876;2024-01-30T01:12:38;16.57;;;9.40;;
56399;SDS011;42298;53.638;9.876;2024-01-30T01:15:04;15.40;;;9.33;;
56399;SDS011;42298;53.638;9.876;2024-01-30T01:17:30;16.77;;;10.83;;
56399;SDS011;42298;53.638;9.876;2024-01-30T01:19:55;15.77;;;9.30;;
56399;SDS011;42298;53.638;9.876;2024-01-30T01:22:21;15.70;;;9.30;;
56399;SDS011;42298;53.638;9.876;2024-01-30T01:24:46;16.27;;;10.77;;
56399;SDS011;42298;53.638;9.876;2024-01-30T01:27:11;14.63;;;8.97;;
56399;SDS011;42298;53.638;9.876;2024-01-30T01:29:37;17.10;;;11.07;;
56399;SDS011;42298;53.638;9.876;2024-01-30T01:32:03;16.70;;;10.30;;
56399;SDS011;42298;53.638;9.876;2024-01-30T01:34:28;17.27;;;11.43;;
56399;SDS011;42298;53.638;9.876;2024-01-30T01:36:53;16.43;;;10.50;;
56399;SDS011;42298;53.638;9.876;2024-01-30T01:39:20;17.50;;;9.73;;
56399;SDS011;42298;53.638;9.876;2024-01-30T01:41:45;14.57;;;10.17;;
56399;SDS011;42298;53.638;9.876;2024-01-30T01:44:11;18.03;;;10.30;;
56399;SDS011;42298;53.638;9.876;2024-01-30T01:46:36;16.23;;;10.67;;
56399;SDS011;42298;53.638;9.876;2024-01-30T01:49:02;15.47;;;9.63;;
56399;SDS011;42298;53.638;9.876;2024-01-30T01:51:29;16.73;;;10.03;;
56399;SDS011;42298;53.638;9.876;2024-01-30T01:53:58;16.13;;;11.03;;
56399;SDS011;42298;53.638;9.876;2024-01-30T01:56:26;16.37;;;11.30;;
56399;SDS011;42298;53.638;9.876;2024-01-30T01:58:54;15.47;;;9.97;;
56399;SDS011;42298;53.638;9.876;2024-01-30T02:01:20;16.57;;;10.77;;
56399;SDS011;42298;53.638;9.876;2024-01-30T02:03:46;16.33;;;11.53;;
56399;SDS011;42298;53.638;9.876;2024-01-30T02:06:13;17.10;;;11.03;;
56399;SDS011;42298;53.638;9.876;2024-01-30T02:08:39;17.53;;;10.83;;
56399;SDS011;42298;53.638;9.876;2024-01-30T02:11:05;17.80;;;11.03;;
56399;SDS011;42298;53.638;9.876;2024-01-30T02:13:30;16.50;;;10.83;;
56399;SDS011;42298;53.638;9.876;2024-01-30T02:15:56;19.40;;;11.70;;
56399;SDS011;42298;53.638;9.876;2024-01-30T02:18:22;15.67;;;10.63;;
56399;SDS011;42298;53.638;9.876;2024-01-30T02:20:47;17.13;;;11.07;;
56399;SDS011;42298;53.638;9.876;2024-01-30T02:23:12;14.93;;;9.87;;
56399;SDS011;42298;53.638;9.876;2024-01-30T02:25:41;15.83;;;10.57;;
56399;SDS011;42298;53.638;9.876;2024-01-30T02:28:13;14.43;;;9.60;;
56399;SDS011;42298;53.638;9.876;2024-01-30T02:30:39;16.07;;;10.57;;
56399;SDS011;42298;53.638;9.876;2024-01-30T02:33:05;13.87;;;9.70;;
56399;SDS011;42298;53.638;9.876;2024-01-30T02:35:30;15.10;;;9.40;;
56399;SDS011;42298;53.638;9.876;2024-01-30T02:37:55;15.40;;;9.97;;
56399;SDS011;42298;53.638;9.876;2024-01-30T02:40:21;14.90;;;9.93;;
56399;SDS011;42298;53.638;9.876;2024-01-30T02:42:46;13.73;;;8.47;;
56399;SDS011;42298;53.638;9.876;2024-01-30T02:45:11;17.63;;;10.47;;
56399;SDS011;42298;53.638;9.876;2024-01-30T02:47:38;15.60;;;10.60;;
56399;SDS011;42298;53.638;9.876;2024-01-30T02:50:03;15.27;;;9.77;;
56399;SDS011;42298;53.638;9.876;2024-01-30T02:52:29;14.13;;;9.30;;
56399;SDS011;42298;53.638;9.876;2024-01-30T02:54:54;15.50;;;9.90;;
56399;SDS011;42298;53.638;9.876;2024-01-30T02:57:20;14.47;;;9.40;;
56399;SDS011;42298;53.638;9.876;2024-01-30T02:59:45;15.43;;;10.03;;
56399;SDS011;42298;53.638;9.876;2024-01-30T03:02:10;15.17;;;9.97;;
56399;SDS011;42298;53.638;9.876;2024-01-30T03:04:36;16.23;;;10.77;;
56399;SDS011;42298;53.638;9.876;2024-01-30T03:07:01;14.27;;;9.60;;
56399;SDS011;42298;53.638;9.876;2024-01-30T03:09:26;15.03;;;9.53;;
56399;SDS011;42298;53.638;9.876;2024-01-30T03:11:52;14.70;;;9.27;;
56399;SDS011;42298;53.638;9.876;2024-01-30T03:14:17;13.83;;;9.13;;
56399;SDS011;42298;53.638;9.876;2024-01-30T03:16:42;17.70;;;10.90;;
56399;SDS011;42298;53.638;9.876;2024-01-30T03:19:08;16.13;;;10.43;;
56399;SDS011;42298;53.638;9.876;2024-01-30T03:21:34;15.00;;;10.17;;
56399;SDS011;42298;53.638;9.876;2024-01-30T03:23:59;16.43;;;10.17;;
56399;SDS011;42298;53.638;9.876;2024-01-30T03:26:25;15.77;;;9.67;;
56399;SDS011;42298;53.638;9.876;2024-01-30T03:28:52;15.10;;;9.57;;
56399;SDS011;42298;53.638;9.876;2024-01-30T03:31:17;15.73;;;10.40;;
56399;SDS011;42298;53.638;9.876;2024-01-30T03:33:43;16.30;;;10.00;;
56399;SDS011;42298;53.638;9.876;2024-01-30T03:36:08;15.63;;;9.70;;
56399;SDS011;42298;53.638;9.876;2024-01-30T03:38:35;15.90;;;9.37;;
56399;SDS011;42298;53.638;9.876;2024-01-30T03:41:00;15.67;;;10.57;;
56399;SDS011;42298;53.638;9.876;2024-01-30T03:43:26;16.23;;;10.37;;
56399;SDS011;42298;53.638;9.876;2024-01-30T03:45:51;15.87;;;9.83;;
56399;SDS011;42298;53.638;9.876;2024-01-30T03:48:18;17.27;;;11.03;;
56399;SDS011;42298;53.638;9.876;2024-01-30T03:50:45;17.33;;;9.83;;
56399;SDS011;42298;53.638;9.876;2024-01-30T03:53:10;15.70;;;10.80;;
56399;SDS011;42298;53.638;9.876;2024-01-30T03:55:35;17.60;;;11.10;;
56399;SDS011;42298;53.638;9.876;2024-01-30T03:58:01;15.70;;;9.70;;
56399;SDS011;42298;53.638;9.876;2024-01-30T04:00:26;14.17;;;9.07;;
56399;SDS011;42298;53.638;9.876;2024-01-30T04:02:51;15.90;;;10.23;;
56399;SDS011;42298;53.638;9.876;2024-01-30T04:05:17;15.67;;;9.13;;
56399;SDS011;42298;53.638;9.876;2024-01-30T04:07:43;14.43;;;9.30;;
56399;SDS011;42298;53.638;9.876;2024-01-30T04:10:09;15.97;;;9.17;;
56399;SDS011;42298;53.638;9.876;2024-01-30T04:12:35;14.70;;;9.63;;
56399;SDS011;42298;53.638;9.876;2024-01-30T04:15:01;13.67;;;9.50;;
56399;SDS011;42298;53.638;9.876;2024-01-30T04:17:26;15.10;;;9.43;;
56399;SDS011;42298;53.638;9.876;2024-01-30T04:19:53;14.47;;;8.70;;
56399;SDS011;42298;53.638;9.876;2024-01-30T04:22:19;13.87;;;8.67;;
56399;SDS011;42298;53.638;9.876;2024-01-30T04:24:44;14.17;;;9.57;;
56399;SDS011;42298;53.638;9.876;2024-01-30T04:27:10;17.57;;;9.53;;
56399;SDS011;42298;53.638;9.876;2024-01-30T04:29:36;14.63;;;9.63;;
56399;SDS011;42298;53.638;9.876;2024-01-30T04:32:01;16.70;;;8.80;;
56399;SDS011;42298;53.638;9.876;2024-01-30T04:34:26;14.13;;;8.60;;
56399;SDS011;42298;53.638;9.876;2024-01-30T04:36:52;16.00;;;9.90;;
56399;SDS011;42298;53.638;9.876;2024-01-30T04:39:17;13.30;;;8.40;;
56399;SDS011;42298;53.638;9.876;2024-01-30T04:41:42;16.97;;;9.70;;
56399;SDS011;42298;53.638;9.876;2024-01-30T04:44:07;14.83;;;9.80;;
56399;SDS011;42298;53.638;9.876;2024-01-30T04:46:33;14.70;;;8.83;;
56399;SDS011;42298;53.638;9.876;2024-01-30T04:49:01;15.13;;;9.30;;
56399;SDS011;42298;53.638;9.876;2024-01-30T04:51:26;12.73;;;8.70;;
56399;SDS011;42298;53.638;9.876;2024-01-30T04:53:51;12.13;;;7.87;;
56399;SDS011;42298;53.638;9.876;2024-01-30T04:56:17;14.43;;;9.00;;
56399;SDS011;42298;53.638;9.876;2024-01-30T04:58:42;13.40;;;8.43;;
56399;SDS011;42298;53.638;9.876;2024-01-30T05:01:08;13.37;;;8.97;;
56399;SDS011;42298;53.638;9.876;2024-01-30T05:03:33;14.20;;;8.67;;
56399;SDS011;42298;53.638;9.876;2024-01-30T05:05:59;14.40;;;8.98;;
56399;SDS011;42298;53.638;9.876;2024-01-30T05:08:25;13.30;;;8.07;;
56399;SDS011;42298;53.638;9.876;2024-01-30T05:10:50;13.57;;;8.30;;
56399;SDS011;42298;53.638;9.876;2024-01-30T05:13:15;14.73;;;8.43;;
56399;SDS011;42298;53.638;9.876;2024-01-30T05:15:41;13.43;;;8.33;;
56399;SDS011;42298;53.638;9.876;2024-01-30T05:18:06;13.30;;;8.57;;
56399;SDS011;42298;53.638;9.876;2024-01-30T05:20:31;14.77;;;8.50;;
56399;SDS011;42298;53.638;9.876;2024-01-30T05:22:56;13.80;;;8.20;;
56399;SDS011;42298;53.638;9.876;2024-01-30T05:25:22;15.57;;;9.00;;
56399;SDS011;42298;53.638;9.876;2024-01-30T05:27:48;14.03;;;9.30;;
56399;SDS011;42298;53.638;9.876;2024-01-30T05:30:14;12.90;;;8.50;;
56399;SDS011;42298;53.638;9.876;2024-01-30T05:32:40;14.63;;;9.20;;
56399;SDS011;42298;53.638;9.876;2024-01-30T05:35:05;13.43;;;8.30;;
56399;SDS011;42298;53.638;9.876;2024-01-30T05:37:33;14.80;;;8.70;;
56399;SDS011;42298;53.638;9.876;2024-01-30T05:39:59;14.13;;;9.70;;
56399;SDS011;42298;53.638;9.876;2024-01-30T05:42:25;13.47;;;8.40;;
56399;SDS011;42298;53.638;9.876;2024-01-30T05:44:50;14.20;;;8.60;;
56399;SDS011;42298;53.638;9.876;2024-01-30T05:47:17;14.50;;;9.27;;
56399;SDS011;42298;53.638;9.876;2024-01-30T05:49:44;15.80;;;8.67;;
56399;SDS011;42298;53.638;9.876;2024-01-30T05:52:09;15.00;;;9.20;;
56399;SDS011;42298;53.638;9.876;2024-01-30T05:54:34;14.67;;;9.17;;
56399;SDS011;42298;53.638;9.876;2024-01-30T05:57:00;17.47;;;11.20;;
56399;SDS011;42298;53.638;9.876;2024-01-30T05:59:25;13.00;;;8.60;;
56399;SDS011;42298;53.638;9.876;2024-01-30T06:01:50;16.30;;;10.27;;
56399;SDS011;42298;53.638;9.876;2024-01-30T06:04:16;16.20;;;10.50;;
56399;SDS011;42298;53.638;9.876;2024-01-30T06:06:41;15.90;;;10.03;;
56399;SDS011;42298;53.638;9.876;2024-01-30T06:09:08;16.57;;;10.87;;
56399;SDS011;42298;53.638;9.876;2024-01-30T06:11:37;14.97;;;9.20;;
56399;SDS011;42298;53.638;9.876;2024-01-30T06:14:03;16.20;;;9.63;;
56399;SDS011;42298;53.638;9.876;2024-01-30T06:16:28;16.73;;;11.27;;
56399;SDS011;42298;53.638;9.876;2024-01-30T06:18:55;17.70;;;12.90;;
56399;SDS011;42298;53.638;9.876;2024-01-30T06:21:21;19.80;;;14.00;;
56399;SDS011;42298;53.638;9.876;2024-01-30T06:23:46;17.53;;;11.10;;
56399;SDS011;42298;53.638;9.876;2024-01-30T06:26:11;18.47;;;11.27;;
56399;SDS011;42298;53.638;9.876;2024-01-30T06:28:37;17.93;;;12.03;;
56399;SDS011;42298;53.638;9.876;2024-01-30T06:31:02;18.00;;;11.43;;
56399;SDS011;42298;53.638;9.876;2024-01-30T06:33:27;20.63;;;13.43;;
56399;SDS011;42298;53.638;9.876;2024-01-30T06:35:53;17.30;;;11.00;;
56399;SDS011;42298;53.638;9.876;2024-01-30T06:38:18;17.67;;;10.90;;
56399;SDS011;42298;53.638;9.876;2024-01-30T06:40:44;17.00;;;11.30;;
56399;SDS011;42298;53.638;9.876;2024-01-30T06:43:09;17.17;;;11.73;;
56399;SDS011;42298;53.638;9.876;2024-01-30T06:45:34;16.97;;;10.27;;
56399;SDS011;42298;53.638;9.876;2024-01-30T06:48:00;16.87;;;10.37;;
56399;SDS011;42298;53.638;9.876;2024-01-30T06:50:25;19.43;;;13.43;;
56399;SDS011;42298;53.638;9.876;2024-01-30T06:52:51;15.63;;;10.93;;
56399;SDS011;42298;53.638;9.876;2024-01-30T06:55:16;17.33;;;10.37;;
56399;SDS011;42298;53.638;9.876;2024-01-30T06:57:41;17.53;;;10.80;;
56399;SDS011;42298;53.638;9.876;2024-01-30T07:00:07;17.80;;;12.17;;
56399;SDS011;42298;53.638;9.876;2024-01-30T07:02:33;15.17;;;9.97;;
56399;SDS011;42298;53.638;9.876;2024-01-30T07:04:58;16.50;;;10.57;;
56399;SDS011;42298;53.638;9.876;2024-01-30T07:07:24;16.93;;;11.80;;
56399;SDS011;42298;53.638;9.876;2024-01-30T07:09:49;19.33;;;12.50;;
56399;SDS011;42298;53.638;9.876;2024-01-30T07:12:17;19.25;;;13.68;;
56399;SDS011;42298;53.638;9.876;2024-01-30T07:14:43;17.80;;;11.03;;
56399;SDS011;42298;53.638;9.876;2024-01-30T07:17:08;21.77;;;12.13;;
56399;SDS011;42298;53.638;9.876;2024-01-30T07:19:33;19.13;;;13.53;;
56399;SDS011;42298;53.638;9.876;2024-01-30T07:21:59;15.77;;;10.47;;
56399;SDS011;42298;53.638;9.876;2024-01-30T07:24:25;16.53;;;11.30;;
56399;SDS011;42298;53.638;9.876;2024-01-30T07:26:50;16.77;;;10.83;;
56399;SDS011;42298;53.638;9.876;2024-01-30T07:29:16;15.20;;;10.60;;
56399;SDS011;42298;53.638;9.876;2024-01-30T07:31:41;17.93;;;11.67;;
56399;SDS011;42298;53.638;9.876;2024-01-30T07:34:06;18.93;;;11.97;;
56399;SDS011;42298;53.638;9.876;2024-01-30T07:36:32;15.30;;;9.77;;
56399;SDS011;42298;53.638;9.876;2024-01-30T07:38:57;15.93;;;11.10;;
56399;SDS011;42298;53.638;9.876;2024-01-30T07:41:22;14.83;;;10.10;;
56399;SDS011;42298;53.638;9.876;2024-01-30T07:43:50;16.45;;;12.23;;
56399;SDS011;42298;53.638;9.876;2024-01-30T07:46:15;15.03;;;10.37;;
56399;SDS011;42298;53.638;9.876;2024-01-30T07:48:40;15.53;;;10.13;;
56399;SDS011;42298;53.638;9.876;2024-01-30T07:51:06;16.93;;;11.67;;
56399;SDS011;42298;53.638;9.876;2024-01-30T07:53:31;15.60;;;10.50;;
56399;SDS011;42298;53.638;9.876;2024-01-30T07:56:02;15.57;;;10.27;;
56399;SDS011;42298;53.638;9.876;2024-01-30T07:58:28;15.50;;;10.07;;
56399;SDS011;42298;53.638;9.876;2024-01-30T08:00:53;16.43;;;10.47;;
56399;SDS011;42298;53.638;9.876;2024-01-30T08:03:19;19.70;;;12.70;;
56399;SDS011;42298;53.638;9.876;2024-01-30T08:05:44;14.90;;;9.30;;
56399;SDS011;42298;53.638;9.876;2024-01-30T08:08:09;15.47;;;9.77;;
56399;SDS011;42298;53.638;9.876;2024-01-30T08:10:35;16.37;;;11.33;;
56399;SDS011;42298;53.638;9.876;2024-01-30T08:13:02;21.57;;;12.10;;
56399;SDS011;42298;53.638;9.876;2024-01-30T08:15:27;18.95;;;13.52;;
56399;SDS011;42298;53.638;9.876;2024-01-30T08:17:52;17.60;;;11.20;;
56399;SDS011;42298;53.638;9.876;2024-01-30T08:20:22;17.67;;;10.80;;
56399;SDS011;42298;53.638;9.876;2024-01-30T08:22:48;17.60;;;11.37;;
56399;SDS011;42298;53.638;9.876;2024-01-30T08:25:13;18.13;;;12.70;;
56399;SDS011;42298;53.638;9.876;2024-01-30T08:27:39;17.33;;;12.23;;
56399;SDS011;42298;53.638;9.876;2024-01-30T08:30:05;18.90;;;12.70;;
56399;SDS011;42298;53.638;9.876;2024-01-30T08:32:31;20.47;;;13.23;;
56399;SDS011;42298;53.638;9.876;2024-01-30T08:34:57;18.73;;;13.50;;
56399;SDS011;42298;53.638;9.876;2024-01-30T08:37:22;21.57;;;16.07;;
56399;SDS011;42298;53.638;9.876;2024-01-30T08:39:48;19.70;;;14.53;;
56399;SDS011;42298;53.638;9.876;2024-01-30T08:42:13;18.17;;;13.20;;
56399;SDS011;42298;53.638;9.876;2024-01-30T08:44:38;23.43;;;14.17;;
56399;SDS011;42298;53.638;9.876;2024-01-30T08:47:05;20.40;;;13.53;;
56399;SDS011;42298;53.638;9.876;2024-01-30T08:49:30;23.63;;;14.07;;
56399;SDS011;42298;53.638;9.876;2024-01-30T08:51:56;22.23;;;15.35;;
56399;SDS011;42298;53.638;9.876;2024-01-30T08:54:21;19.60;;;13.43;;
56399;SDS011;42298;53.638;9.876;2024-01-30T08:56:47;21.90;;;15.27;;
56399;SDS011;42298;53.638;9.876;2024-01-30T08:59:12;19.40;;;13.73;;
56399;SDS011;42298;53.638;9.876;2024-01-30T09:01:37;20.10;;;14.07;;
56399;SDS011;42298;53.638;9.876;2024-01-30T09:04:03;20.47;;;14.13;;
56399;SDS011;42298;53.638;9.876;2024-01-30T09:06:28;20.57;;;14.30;;
56399;SDS011;42298;53.638;9.876;2024-01-30T09:08:54;17.33;;;13.23;;
56399;SDS011;42298;53.638;9.876;2024-01-30T09:11:19;19.83;;;15.18;;
56399;SDS011;42298;53.638;9.876;2024-01-30T09:13:44;20.43;;;14.67;;
56399;SDS011;42298;53.638;9.876;2024-01-30T09:16:10;19.80;;;15.03;;
56399;SDS011;42298;53.638;9.876;2024-01-30T09:18:35;23.07;;;15.50;;
56399;SDS011;42298;53.638;9.876;2024-01-30T09:21:01;22.30;;;15.23;;
56399;SDS011;42298;53.638;9.876;2024-01-30T09:23:29;19.37;;;14.10;;
56399;SDS011;42298;53.638;9.876;2024-01-30T09:25:55;18.33;;;13.03;;
56399;SDS011;42298;53.638;9.876;2024-01-30T09:28:20;20.00;;;13.50;;
56399;SDS011;42298;53.638;9.876;2024-01-30T09:30:45;19.77;;;14.30;;
56399;SDS011;42298;53.638;9.876;2024-01-30T09:33:11;20.30;;;14.60;;
56399;SDS011;42298;53.638;9.876;2024-01-30T09:35:36;22.27;;;13.63;;
56399;SDS011;42298;53.638;9.876;2024-01-30T09:38:02;21.37;;;15.00;;
56399;SDS011;42298;53.638;9.876;2024-01-30T09:40:27;20.97;;;14.13;;
56399;SDS011;42298;53.638;9.876;2024-01-30T09:42:53;21.00;;;15.37;;
56399;SDS011;42298;53.638;9.876;2024-01-30T09:45:19;20.60;;;14.73;;
56399;SDS011;42298;53.638;9.876;2024-01-30T09:47:48;21.70;;;13.30;;
56399;SDS011;42298;53.638;9.876;2024-01-30T09:50:14;19.23;;;13.93;;
56399;SDS011;42298;53.638;9.876;2024-01-30T09:52:40;22.17;;;14.87;;
56399;SDS011;42298;53.638;9.876;2024-01-30T09:55:07;21.40;;;14.33;;
56399;SDS011;42298;53.638;9.876;2024-01-30T09:57:33;21.10;;;16.00;;
56399;SDS011;42298;53.638;9.876;2024-01-30T09:59:59;21.30;;;14.77;;
56399;SDS011;42298;53.638;9.876;2024-01-30T10:02:24;21.10;;;14.73;;
56399;SDS011;42298;53.638;9.876;2024-01-30T10:04:51;21.00;;;14.27;;
56399;SDS011;42298;53.638;9.876;2024-01-30T10:07:17;21.47;;;13.67;;
56399;SDS011;42298;53.638;9.876;2024-01-30T10:09:43;21.43;;;13.77;;
56399;SDS011;42298;53.638;9.876;2024-01-30T10:12:09;20.30;;;13.63;;
56399;SDS011;42298;53.638;9.876;2024-01-30T10:14:41;18.40;;;13.13;;
56399;SDS011;42298;53.638;9.876;2024-01-30T10:17:08;20.30;;;12.97;;
56399;SDS011;42298;53.638;9.876;2024-01-30T10:19:34;21.07;;;14.30;;
56399;SDS011;42298;53.638;9.876;2024-01-30T10:22:00;19.63;;;14.07;;
56399;SDS011;42298;53.638;9.876;2024-01-30T10:24:25;18.20;;;12.43;;
56399;SDS011;42298;53.638;9.876;2024-01-30T10:26:51;16.23;;;12.43;;
56399;SDS011;42298;53.638;9.876;2024-01-30T10:29:17;20.33;;;13.33;;
56399;SDS011;42298;53.638;9.876;2024-01-30T10:31:43;20.70;;;12.80;;
56399;SDS011;42298;53.638;9.876;2024-01-30T10:34:08;19.27;;;12.17;;
56399;SDS011;42298;53.638;9.876;2024-01-30T10:36:40;18.53;;;13.03;;
56399;SDS011;42298;53.638;9.876;2024-01-30T10:39:08;20.83;;;12.17;;
56399;SDS011;42298;53.638;9.876;2024-01-30T10:41:35;19.87;;;13.93;;
56399;SDS011;42298;53.638;9.876;2024-01-30T10:44:08;17.40;;;12.37;;
56399;SDS011;42298;53.638;9.876;2024-01-30T10:46:34;19.20;;;12.93;;
56399;SDS011;42298;53.638;9.876;2024-01-30T10:49:02;19.53;;;13.30;;
56399;SDS011;42298;53.638;9.876;2024-01-30T10:51:29;17.53;;;11.50;;
56399;SDS011;42298;53.638;9.876;2024-01-30T10:53:57;20.27;;;12.17;;
56399;SDS011;42298;53.638;9.876;2024-01-30T10:56:25;16.93;;;11.80;;
56399;SDS011;42298;53.638;9.876;2024-01-30T10:58:52;17.00;;;12.00;;
56399;SDS011;42298;53.638;9.876;2024-01-30T11:01:21;17.53;;;11.87;;
56399;SDS011;42298;53.638;9.876;2024-01-30T11:03:52;17.63;;;12.60;;
56399;SDS011;42298;53.638;9.876;2024-01-30T11:06:18;16.00;;;11.17;;
56399;SDS011;42298;53.638;9.876;2024-01-30T11:08:59;17.70;;;11.80;;
56399;SDS011;42298;53.638;9.876;2024-01-30T11:11:50;15.87;;;11.33;;
56399;SDS011;42298;53.638;9.876;2024-01-30T11:14:22;16.00;;;10.47;;
56399;SDS011;42298;53.638;9.876;2024-01-30T11:16:49;16.57;;;10.37;;
56399;SDS011;42298;53.638;9.876;2024-01-30T11:19:15;16.27;;;11.53;;
56399;SDS011;42298;53.638;9.876;2024-01-30T11:21:47;17.97;;;10.83;;
56399;SDS011;42298;53.638;9.876;2024-01-30T11:24:15;17.05;;;12.63;;
56399;SDS011;42298;53.638;9.876;2024-01-30T11:26:43;17.23;;;11.40;;
56399;SDS011;42298;53.638;9.876;2024-01-30T11:29:09;17.83;;;11.47;;
56399;SDS011;42298;53.638;9.876;2024-01-30T11:31:34;17.33;;;11.57;;
56399;SDS011;42298;53.638;9.876;2024-01-30T11:34:00;17.63;;;10.82;;
56399;SDS011;42298;53.638;9.876;2024-01-30T11:36:27;14.67;;;10.03;;
56399;SDS011;42298;53.638;9.876;2024-01-30T11:38:54;16.60;;;9.90;;
56399;SDS011;42298;53.638;9.876;2024-01-30T11:41:19;18.65;;;11.80;;
56399;SDS011;42298;53.638;9.876;2024-01-30T11:43:54;16.67;;;10.57;;
56399;SDS011;42298;53.638;9.876;2024-01-30T11:46:19;17.20;;;11.32;;
56399;SDS011;42298;53.638;9.876;2024-01-30T11:48:45;14.80;;;10.23;;
56399;SDS011;42298;53.638;9.876;2024-01-30T11:51:11;17.87;;;11.47;;
56399;SDS011;42298;53.638;9.876;2024-01-30T11:53:38;18.90;;;9.93;;
56399;SDS011;42298;53.638;9.876;2024-01-30T11:56:05;15.60;;;10.83;;
56399;SDS011;42298;53.638;9.876;2024-01-30T11:58:31;16.08;;;10.10;;
56399;SDS011;42298;53.638;9.876;2024-01-30T12:00:56;15.70;;;10.80;;
56399;SDS011;42298;53.638;9.876;2024-01-30T12:03:22;17.30;;;10.20;;
56399;SDS011;42298;53.638;9.876;2024-01-30T12:05:54;15.13;;;10.03;;
56399;SDS011;42298;53.638;9.876;2024-01-30T12:08:23;14.40;;;9.53;;
56399;SDS011;42298;53.638;9.876;2024-01-30T12:10:55;16.20;;;11.70;;
56399;SDS011;42298;53.638;9.876;2024-01-30T12:13:22;16.17;;;10.23;;
56399;SDS011;42298;53.638;9.876;2024-01-30T12:15:47;17.83;;;11.47;;
56399;SDS011;42298;53.638;9.876;2024-01-30T12:18:13;17.42;;;10.68;;
56399;SDS011;42298;53.638;9.876;2024-01-30T12:20:38;15.60;;;10.87;;
56399;SDS011;42298;53.638;9.876;2024-01-30T12:23:04;16.83;;;9.97;;
56399;SDS011;42298;53.638;9.876;2024-01-30T12:25:29;16.73;;;10.43;;
56399;SDS011;42298;53.638;9.876;2024-01-30T12:27:55;17.03;;;10.57;;
56399;SDS011;42298;53.638;9.876;2024-01-30T12:30:21;15.37;;;10.63;;
56399;SDS011;42298;53.638;9.876;2024-01-30T12:32:47;16.67;;;11.10;;
56399;SDS011;42298;53.638;9.876;2024-01-30T12:35:16;17.40;;;10.10;;
56399;SDS011;42298;53.638;9.876;2024-01-30T12:37:44;16.57;;;10.50;;
56399;SDS011;42298;53.638;9.876;2024-01-30T12:40:10;16.45;;;11.23;;
56399;SDS011;42298;53.638;9.876;2024-01-30T12:42:39;17.80;;;11.73;;
56399;SDS011;42298;53.638;9.876;2024-01-30T12:45:05;16.70;;;10.47;;
56399;SDS011;42298;53.638;9.876;2024-01-30T12:47:31;15.25;;;10.15;;
56399;SDS011;42298;53.638;9.876;2024-01-30T12:49:57;15.90;;;11.63;;
56399;SDS011;42298;53.638;9.876;2024-01-30T12:52:23;17.38;;;10.70;;
56399;SDS011;42298;53.638;9.876;2024-01-30T12:54:48;15.00;;;9.27;;
56399;SDS011;42298;53.638;9.876;2024-01-30T12:57:14;16.07;;;10.43;;
56399;SDS011;42298;53.638;9.876;2024-01-30T12:59:40;17.05;;;11.40;;
56399;SDS011;42298;53.638;9.876;2024-01-30T13:02:05;16.10;;;11.70;;
56399;SDS011;42298;53.638;9.876;2024-01-30T13:04:31;18.17;;;11.70;;
56399;SDS011;42298;53.638;9.876;2024-01-30T13:06:57;17.17;;;11.30;;
56399;SDS011;42298;53.638;9.876;2024-01-30T13:09:23;18.23;;;11.43;;
56399;SDS011;42298;53.638;9.876;2024-01-30T13:11:49;17.42;;;11.85;;
56399;SDS011;42298;53.638;9.876;2024-01-30T13:14:16;15.00;;;10.90;;
56399;SDS011;42298;53.638;9.876;2024-01-30T13:16:42;17.48;;;11.48;;
56399;SDS011;42298;53.638;9.876;2024-01-30T13:19:08;16.37;;;10.97;;
56399;SDS011;42298;53.638;9.876;2024-01-30T13:21:34;14.33;;;9.97;;
56399;SDS011;42298;53.638;9.876;2024-01-30T13:24:04;15.43;;;10.33;;
56399;SDS011;42298;53.638;9.876;2024-01-30T13:26:37;19.17;;;12.15;;
56399;SDS011;42298;53.638;9.876;2024-01-30T13:29:02;15.38;;;11.25;;
56399;SDS011;42298;53.638;9.876;2024-01-30T13:31:28;15.45;;;10.60;;
56399;SDS011;42298;53.638;9.876;2024-01-30T13:33:54;16.70;;;10.88;;
56399;SDS011;42298;53.638;9.876;2024-01-30T13:36:21;17.37;;;10.90;;
56399;SDS011;42298;53.638;9.876;2024-01-30T13:38:47;14.98;;;9.82;;
56399;SDS011;42298;53.638;9.876;2024-01-30T13:41:13;18.73;;;11.20;;
56399;SDS011;42298;53.638;9.876;2024-01-30T13:43:38;16.35;;;10.63;;
56399;SDS011;42298;53.638;9.876;2024-01-30T13:46:03;17.45;;;11.20;;
56399;SDS011;42298;53.638;9.876;2024-01-30T13:48:29;15.95;;;11.52;;
56399;SDS011;42298;53.638;9.876;2024-01-30T13:50:57;16.45;;;11.93;;
56399;SDS011;42298;53.638;9.876;2024-01-30T13:53:23;17.00;;;10.43;;
56399;SDS011;42298;53.638;9.876;2024-01-30T13:55:48;18.20;;;11.77;;
56399;SDS011;42298;53.638;9.876;2024-01-30T14:00:42;14.35;;;10.10;;
56399;SDS011;42298;53.638;9.876;2024-01-30T14:03:07;20.88;;;11.93;;
56399;SDS011;42298;53.638;9.876;2024-01-30T14:05:34;17.08;;;11.27;;
56399;SDS011;42298;53.638;9.876;2024-01-30T14:08:00;18.60;;;11.68;;
56399;SDS011;42298;53.638;9.876;2024-01-30T14:10:25;19.88;;;11.25;;
56399;SDS011;42298;53.638;9.876;2024-01-30T14:12:51;18.02;;;10.70;;
56399;SDS011;42298;53.638;9.876;2024-01-30T14:15:16;18.00;;;11.50;;
56399;SDS011;42298;53.638;9.876;2024-01-30T14:17:45;17.13;;;11.85;;
56399;SDS011;42298;53.638;9.876;2024-01-30T14:20:13;17.20;;;10.98;;
56399;SDS011;42298;53.638;9.876;2024-01-30T14:22:39;17.43;;;11.23;;